createdAt,value
2018-06-28T00:00:32.395Z,62.10
2018-06-28T00:07:58.398Z,62.00
2018-06-28T00:10:27.278Z,62.00
2018-06-28T00:12:56.019Z,62.10
2018-06-28T00:17:53.248Z,62.80
2018-06-28T00:20:22.025Z,62.80
2018-06-28T00:22:50.810Z,62.80
2018-06-28T00:25:19.779Z,62.70
2018-06-28T00:27:48.544Z,62.70
2018-06-28T00:32:45.878Z,62.90
2018-06-28T00:35:14.852Z,63.10
2018-06-28T00:37:43.604Z,63.20
2018-06-28T00:47:38.027Z,64.60
2018-06-28T00:50:06.785Z,63.80
2018-06-28T00:52:35.619Z,63.80
2018-06-28T00:55:04.458Z,63.70
2018-06-28T00:57:33.245Z,63.70
2018-06-28T01:00:02.095Z,63.70
2018-06-28T01:02:30.917Z,64.50
2018-06-28T01:04:59.764Z,64.00
2018-06-28T01:07:28.535Z,64.20
2018-06-28T01:09:57.409Z,64.40
2018-06-28T01:12:26.283Z,64.50
2018-06-28T01:14:55.076Z,64.50
2018-06-28T01:17:23.887Z,64.40
2018-06-28T01:19:52.889Z,64.40
2018-06-28T01:22:21.615Z,64.40
2018-06-28T01:24:50.434Z,64.20
2018-06-28T01:27:20.298Z,64.10
2018-06-28T01:29:49.208Z,64.10
2018-06-28T01:32:18.040Z,64.20
2018-06-28T01:34:46.810Z,64.20
2018-06-28T01:37:16.209Z,64.20
2018-06-28T01:39:45.223Z,64.40
2018-06-28T01:42:25.415Z,64.80
2018-06-28T01:44:54.300Z,65.10
2018-06-28T01:47:23.161Z,65.20
2018-06-28T01:49:52.013Z,65.20
2018-06-28T01:52:20.764Z,65.20
2018-06-28T01:54:49.527Z,65.20
2018-06-28T01:57:18.295Z,65.30
2018-06-28T01:59:47.176Z,65.30
2018-06-28T02:02:15.948Z,65.30
2018-06-28T02:04:44.773Z,65.30
2018-06-28T02:07:13.866Z,65.30
2018-06-28T02:09:42.661Z,65.50
2018-06-28T02:12:11.476Z,65.60
2018-06-28T02:14:40.296Z,66.00
2018-06-28T02:17:09.108Z,66.40
2018-06-28T02:19:37.871Z,66.40
2018-06-28T02:24:35.354Z,66.30
2018-06-28T02:27:05.215Z,66.20
2018-06-28T02:29:33.968Z,66.50
2018-06-28T02:32:02.932Z,66.50
2018-06-28T02:34:31.698Z,66.90
2018-06-28T02:37:00.467Z,66.70
2018-06-28T02:39:29.209Z,67.00
2018-06-28T02:44:26.488Z,67.10
2018-06-28T02:46:55.283Z,67.20
2018-06-28T02:49:24.185Z,67.30
2018-06-28T02:51:53.012Z,67.70
2018-06-28T02:54:21.807Z,67.60
2018-06-28T02:56:50.601Z,67.60
2018-06-28T02:59:19.461Z,67.60
2018-06-28T03:01:48.527Z,67.90
2018-06-28T03:04:17.334Z,67.80
2018-06-28T03:06:46.251Z,68.00
2018-06-28T03:11:43.520Z,68.70
2018-06-28T03:14:12.620Z,68.30
2018-06-28T03:16:41.421Z,68.50
2018-06-28T03:19:10.382Z,68.60
2018-06-28T03:21:39.373Z,68.60
2018-06-28T03:24:08.129Z,68.70
2018-06-28T03:29:05.472Z,69.00
2018-06-28T03:31:34.370Z,69.00
2018-06-28T03:34:03.316Z,69.20
2018-06-28T03:36:32.129Z,69.30
2018-06-28T03:39:01.063Z,69.60
2018-06-28T03:41:29.881Z,69.50
2018-06-28T03:43:58.773Z,69.80
2018-06-28T03:46:27.558Z,68.70
2018-06-28T03:48:56.429Z,68.80
2018-06-28T03:51:25.302Z,69.00
2018-06-28T03:53:54.078Z,69.10
2018-06-28T03:56:22.926Z,69.10
2018-06-28T03:58:51.748Z,69.30
2018-06-28T04:01:20.494Z,69.30
2018-06-28T04:03:49.256Z,69.40
2018-06-28T04:08:46.726Z,69.80
2018-06-28T04:11:15.507Z,70.00
2018-06-28T04:13:44.275Z,70.10
2018-06-28T04:16:13.053Z,70.10
2018-06-28T04:18:41.966Z,70.20
2018-06-28T04:21:10.770Z,70.40
2018-06-28T04:23:39.753Z,70.60
2018-06-28T04:26:08.518Z,70.60
2018-06-28T04:28:37.368Z,70.50
2018-06-28T04:31:06.233Z,70.50
2018-06-28T04:33:35.120Z,70.80
2018-06-28T04:36:04.013Z,70.90
2018-06-28T04:38:32.858Z,71.10
2018-06-28T04:41:02.608Z,71.10
2018-06-28T04:43:31.367Z,70.90
2018-06-28T04:46:00.340Z,71.00
2018-06-28T04:48:29.209Z,71.00
2018-06-28T04:50:58.060Z,71.00
2018-06-28T04:53:26.797Z,71.30
2018-06-28T04:55:55.559Z,71.30
2018-06-28T04:58:25.084Z,71.20
2018-06-28T05:00:54.081Z,71.40
2018-06-28T05:03:22.872Z,71.20
2018-06-28T05:05:51.623Z,71.20
2018-06-28T05:08:20.476Z,71.10
2018-06-28T05:10:50.048Z,71.20
2018-06-28T05:13:18.972Z,71.10
2018-06-28T05:15:47.990Z,71.10
2018-06-28T05:18:16.895Z,71.20
2018-06-28T05:20:45.777Z,71.10
2018-06-28T05:23:14.755Z,70.90
2018-06-28T05:25:43.593Z,70.40
2018-06-28T05:28:12.439Z,70.10
2018-06-28T05:30:41.232Z,70.00
2018-06-28T05:33:10.005Z,70.00
2018-06-28T05:35:38.851Z,69.80
2018-06-28T05:38:07.770Z,69.70
2018-06-28T05:40:37.942Z,69.80
2018-06-28T05:43:06.861Z,69.90
2018-06-28T05:45:35.716Z,69.80
2018-06-28T05:48:04.690Z,70.10
2018-06-28T05:50:33.582Z,69.20
2018-06-28T05:53:02.450Z,69.20
2018-06-28T05:55:31.409Z,68.70
2018-06-28T06:00:28.913Z,68.80
2018-06-28T06:02:57.722Z,68.60
2018-06-28T06:05:26.491Z,68.30
2018-06-28T06:07:55.254Z,68.10
2018-06-28T06:10:24.168Z,68.20
2018-06-28T06:12:52.901Z,68.00
2018-06-28T06:15:21.780Z,68.10
2018-06-28T06:17:50.589Z,67.90
2018-06-28T06:20:19.404Z,68.50
2018-06-28T06:22:48.166Z,67.60
2018-06-28T06:25:16.957Z,67.60
2018-06-28T06:27:46.003Z,67.70
2018-06-28T06:30:14.824Z,67.00
2018-06-28T06:32:43.591Z,67.20
2018-06-28T06:35:12.529Z,67.00
2018-06-28T06:37:41.325Z,66.90
2018-06-28T06:40:10.109Z,67.00
2018-06-28T06:42:38.940Z,66.50
2018-06-28T06:45:08.129Z,66.50
2018-06-28T06:47:36.900Z,66.20
2018-06-28T06:55:02.922Z,66.50
2018-06-28T06:57:31.773Z,66.20
2018-06-28T07:00:00.641Z,65.60
2018-06-28T07:02:29.939Z,65.20
2018-06-28T07:04:58.780Z,65.50
2018-06-28T07:07:28.430Z,65.20
2018-06-28T07:09:57.318Z,65.10
2018-06-28T07:12:27.081Z,65.30
2018-06-28T07:14:55.890Z,64.90
2018-06-28T07:17:24.676Z,64.40
2018-06-28T07:19:53.470Z,64.60
2018-06-28T07:22:22.204Z,64.40
2018-06-28T07:24:51.031Z,63.90
2018-06-28T07:27:19.853Z,63.90
2018-06-28T07:29:48.660Z,64.20
2018-06-28T07:32:17.477Z,63.80
2018-06-28T07:34:46.358Z,63.20
2018-06-28T07:39:43.701Z,62.80
2018-06-28T07:42:12.494Z,62.70
2018-06-28T07:44:41.361Z,62.60
2018-06-28T07:47:10.220Z,62.50
2018-06-28T07:49:39.206Z,62.10
2018-06-28T07:52:08.000Z,62.10
2018-06-28T07:54:36.889Z,62.10
2018-06-28T07:57:05.733Z,61.30
2018-06-28T07:59:34.548Z,61.00
2018-06-28T08:04:33.100Z,60.40
2018-06-28T08:07:01.951Z,60.80
2018-06-28T08:09:30.793Z,60.90
2018-06-28T08:11:59.629Z,60.00
2018-06-28T08:14:28.436Z,60.00
2018-06-28T08:16:57.223Z,59.80
2018-06-28T08:19:26.105Z,59.70
2018-06-28T08:21:55.620Z,59.50
2018-06-28T08:24:24.508Z,59.10
2018-06-28T08:26:53.581Z,58.80
2018-06-28T08:29:22.356Z,58.80
2018-06-28T08:31:51.460Z,59.00
2018-06-28T08:34:20.357Z,58.90
2018-06-28T08:39:17.855Z,59.30
2018-06-28T08:41:46.949Z,59.00
2018-06-28T08:44:15.805Z,58.90
2018-06-28T08:46:44.634Z,58.70
2018-06-28T08:49:13.420Z,58.70
2018-06-28T08:51:42.289Z,58.80
2018-06-28T08:54:11.103Z,58.80
2018-06-28T08:56:40.134Z,58.40
2018-06-28T08:59:09.084Z,58.10
2018-06-28T09:04:06.679Z,56.70
2018-06-28T09:06:35.464Z,55.70
2018-06-28T09:09:08.164Z,54.60
2018-06-28T09:11:37.149Z,54.10
2018-06-28T09:14:06.389Z,53.90
2018-06-28T09:16:35.192Z,53.70
2018-06-28T09:21:32.838Z,53.80
2018-06-28T09:24:01.749Z,53.80
2018-06-28T09:26:30.636Z,52.90
2018-06-28T09:28:59.516Z,52.70
2018-06-28T09:31:28.328Z,52.90
2018-06-28T09:36:25.711Z,53.00
2018-06-28T09:38:55.269Z,52.80
2018-06-28T09:41:24.112Z,52.70
2018-06-28T09:43:52.965Z,52.70
2018-06-28T09:46:21.801Z,52.80
2018-06-28T09:48:50.645Z,52.80
2018-06-28T09:51:19.472Z,52.40
2018-06-28T09:53:48.849Z,52.50
2018-06-28T09:56:17.593Z,52.50
2018-06-28T09:58:46.349Z,52.50
2018-06-28T10:01:15.198Z,52.30
2018-06-28T10:03:44.010Z,51.80
2018-06-28T10:06:12.771Z,52.00
2018-06-28T10:08:41.533Z,52.00
2018-06-28T10:11:10.329Z,52.40
2018-06-28T10:13:39.162Z,52.00
2018-06-28T10:16:07.957Z,51.70
2018-06-28T10:18:36.756Z,51.30
2018-06-28T10:21:05.575Z,51.90
2018-06-28T10:23:34.472Z,52.10
2018-06-28T10:26:03.266Z,51.60
2018-06-28T10:28:32.016Z,51.70
2018-06-28T10:31:01.604Z,51.20
2018-06-28T10:33:31.214Z,50.60
2018-06-28T10:36:00.067Z,50.10
2018-06-28T10:38:28.894Z,50.60
2018-06-28T10:40:57.716Z,50.20
2018-06-28T10:43:26.594Z,50.30
2018-06-28T10:45:55.342Z,50.30
2018-06-28T10:48:24.128Z,50.30
2018-06-28T10:50:52.881Z,50.30
2018-06-28T10:53:21.683Z,50.40
2018-06-28T10:55:50.444Z,50.50
2018-06-28T11:00:48.087Z,50.50
2018-06-28T11:03:16.852Z,50.60
2018-06-28T11:05:45.785Z,50.60
2018-06-28T11:08:14.569Z,49.80
2018-06-28T11:10:43.343Z,51.20
2018-06-28T11:13:12.166Z,50.70
2018-06-28T11:18:09.390Z,50.50
2018-06-28T11:20:38.224Z,49.00
2018-06-28T11:23:06.980Z,48.90
2018-06-28T11:25:35.727Z,48.00
2018-06-28T11:28:04.637Z,47.40
2018-06-28T11:30:33.551Z,47.70
2018-06-28T11:33:02.286Z,47.60
2018-06-28T11:35:31.197Z,47.60
2018-06-28T11:38:00.023Z,47.80
2018-06-28T11:40:28.769Z,47.90
2018-06-28T11:42:57.676Z,47.60
2018-06-28T11:45:26.683Z,46.50
2018-06-28T11:47:55.512Z,46.20
2018-06-28T11:50:24.388Z,46.10
2018-06-28T11:52:53.150Z,46.30
2018-06-28T11:55:22.041Z,46.20
2018-06-28T11:57:50.866Z,44.20
2018-06-28T12:02:48.240Z,44.40
2018-06-28T12:05:17.177Z,44.80
2018-06-28T12:07:45.937Z,45.30
2018-06-28T12:12:43.399Z,46.10
2018-06-28T12:17:40.869Z,45.30
2018-06-28T12:20:09.631Z,46.30
2018-06-28T12:22:38.468Z,47.50
2018-06-28T12:27:35.727Z,46.70
2018-06-28T12:30:04.904Z,46.40
2018-06-28T12:32:33.826Z,46.50
2018-06-28T12:35:02.617Z,45.80
2018-06-28T12:40:00.108Z,44.80
2018-06-28T12:42:28.902Z,44.80
2018-06-28T12:44:57.677Z,44.90
2018-06-28T12:48:30.687Z,45.10
2018-06-28T12:50:59.560Z,45.30
2018-06-28T12:53:28.443Z,44.90
2018-06-28T12:56:30.331Z,44.80
2018-06-28T13:01:30.041Z,45.10
2018-06-28T13:03:59.058Z,44.80
2018-06-28T13:06:27.885Z,44.50
2018-06-28T13:08:57.430Z,44.50
2018-06-28T13:11:26.843Z,44.70
2018-06-28T13:13:55.665Z,44.70
2018-06-28T13:16:26.056Z,44.80
2018-06-28T13:18:54.821Z,44.90
2018-06-28T13:23:52.201Z,45.10
2018-06-28T13:26:21.027Z,45.10
2018-06-28T13:28:49.840Z,44.80
2018-06-28T13:31:18.601Z,45.00
2018-06-28T13:33:47.394Z,44.20
2018-06-28T13:36:16.166Z,43.60
2018-06-28T13:38:44.946Z,43.10
2018-06-28T13:41:13.935Z,43.30
2018-06-28T13:43:42.488Z,43.40
2018-06-28T13:46:11.329Z,43.10
2018-06-28T13:51:08.628Z,43.20
2018-06-28T13:53:37.479Z,44.30
2018-06-28T13:56:06.298Z,44.60
2018-06-28T13:58:35.162Z,44.80
2018-06-28T14:01:04.003Z,45.40
2018-06-28T14:03:32.821Z,45.80
2018-06-28T14:08:30.167Z,45.50
2018-06-28T14:10:58.987Z,45.60
2018-06-28T14:13:27.827Z,45.90
2018-06-28T14:15:57.447Z,46.20
2018-06-28T14:18:26.277Z,45.90
2018-06-28T14:23:23.623Z,46.40
2018-06-28T14:25:52.412Z,47.10
2018-06-28T14:28:21.246Z,47.30
2018-06-28T14:30:50.051Z,47.20
2018-06-28T14:33:18.799Z,47.10
2018-06-28T14:35:47.629Z,47.20
2018-06-28T14:38:16.384Z,46.90
2018-06-28T14:40:45.211Z,46.80
2018-06-28T14:43:14.095Z,46.80
2018-06-28T14:45:42.925Z,46.90
2018-06-28T14:48:11.808Z,46.30
2018-06-28T14:50:40.675Z,46.70
2018-06-28T14:53:09.415Z,46.60
2018-06-28T14:55:38.190Z,46.30
2018-06-28T14:58:06.924Z,46.50
2018-06-28T15:00:35.700Z,46.30
2018-06-28T15:03:04.565Z,46.90
2018-06-28T15:05:33.393Z,46.70
2018-06-28T15:08:02.309Z,46.80
2018-06-28T15:10:31.138Z,46.90
2018-06-28T15:12:59.893Z,46.90
2018-06-28T15:15:28.703Z,46.00
2018-06-28T15:17:57.561Z,45.60
2018-06-28T15:20:26.411Z,45.40
2018-06-28T15:22:55.298Z,45.20
2018-06-28T15:25:24.128Z,45.40
2018-06-28T15:27:52.976Z,45.50
2018-06-28T15:30:21.917Z,45.40
2018-06-28T15:32:50.988Z,45.60
2018-06-28T15:35:20.428Z,45.80
2018-06-28T15:37:49.203Z,46.20
2018-06-28T15:40:18.082Z,45.40
2018-06-28T15:45:16.276Z,45.20
2018-06-28T15:47:45.075Z,45.70
2018-06-28T15:50:13.886Z,45.30
2018-06-28T15:52:42.834Z,44.90
2018-06-28T15:55:11.635Z,45.40
2018-06-28T15:57:40.892Z,45.30
2018-06-28T16:00:09.695Z,45.30
2018-06-28T16:02:38.471Z,45.10
2018-06-28T16:07:36.136Z,45.30
2018-06-28T16:10:05.799Z,45.60
2018-06-28T16:15:03.120Z,45.30
2018-06-28T16:20:00.844Z,44.90
2018-06-28T16:22:29.853Z,44.70
2018-06-28T16:24:58.690Z,44.50
2018-06-28T16:27:27.544Z,44.80
2018-06-28T16:29:56.309Z,45.30
2018-06-28T16:32:25.126Z,44.60
2018-06-28T16:34:53.919Z,44.00
2018-06-28T16:37:22.769Z,44.00
2018-06-28T16:39:51.811Z,44.00
2018-06-28T16:42:20.583Z,43.60
2018-06-28T16:44:49.374Z,43.80
2018-06-28T16:47:18.144Z,43.90
2018-06-28T16:49:47.061Z,43.50
2018-06-28T16:52:16.719Z,44.40
2018-06-28T16:54:45.414Z,44.40
2018-06-28T16:57:14.312Z,43.90
2018-06-28T16:59:43.328Z,43.90
2018-06-28T17:02:11.973Z,44.00
2018-06-28T17:07:09.253Z,43.70
2018-06-28T17:12:06.576Z,43.50
2018-06-28T17:14:35.405Z,42.50
2018-06-28T17:17:04.345Z,41.80
2018-06-28T17:19:33.193Z,42.10
2018-06-28T17:24:30.511Z,42.60
2018-06-28T17:26:59.339Z,42.90
2018-06-28T17:29:28.043Z,43.20
2018-06-28T17:31:56.868Z,42.80
2018-06-28T17:34:25.726Z,43.00
2018-06-28T17:39:23.222Z,43.10
2018-06-28T17:41:52.220Z,43.50
2018-06-28T17:44:21.004Z,43.60
2018-06-28T17:46:49.794Z,43.80
2018-06-28T17:49:18.592Z,44.00
2018-06-28T17:51:47.391Z,43.90
2018-06-28T17:54:16.166Z,44.20
2018-06-28T17:56:44.957Z,44.10
2018-06-28T17:59:13.711Z,43.70
2018-06-28T18:01:42.482Z,43.70
2018-06-28T18:04:11.292Z,44.00
2018-06-28T18:06:46.677Z,44.20
2018-06-28T18:09:15.460Z,44.40
2018-06-28T18:14:12.703Z,44.30
2018-06-28T18:16:41.581Z,44.40
2018-06-28T18:21:38.967Z,44.50
2018-06-28T18:24:07.751Z,44.60
2018-06-28T18:26:36.551Z,44.80
2018-06-28T18:29:05.488Z,44.60
2018-06-28T18:31:34.264Z,44.70
2018-06-28T18:34:03.079Z,44.80
2018-06-28T18:36:31.912Z,44.40
2018-06-28T18:39:00.760Z,44.30
2018-06-28T18:41:29.524Z,43.40
2018-06-28T18:43:58.368Z,43.70
2018-06-28T18:46:27.152Z,42.90
2018-06-28T18:48:56.136Z,43.40
2018-06-28T18:53:53.984Z,43.80
2018-06-28T18:56:22.765Z,44.00
2018-06-28T18:58:51.534Z,44.00
2018-06-28T19:01:20.432Z,44.40
2018-06-28T19:03:49.181Z,44.60
2018-06-28T19:08:46.931Z,44.80
2018-06-28T19:11:15.897Z,44.60
2018-06-28T19:13:50.081Z,44.80
2018-06-28T19:16:24.217Z,44.90
2018-06-28T19:18:53.258Z,44.90
2018-06-28T19:21:27.411Z,44.80
2018-06-28T19:23:56.304Z,45.10
2018-06-28T19:26:25.131Z,45.10
2018-06-28T19:28:53.872Z,45.10
2018-06-28T19:32:28.549Z,45.10
2018-06-28T19:34:57.324Z,45.10
2018-06-28T19:37:31.578Z,45.20
2018-06-28T19:40:05.760Z,45.40
2018-06-28T19:42:40.064Z,45.30
2018-06-28T19:45:09.194Z,45.50
2018-06-28T19:47:44.614Z,45.80
2018-06-28T19:50:18.816Z,45.50
2018-06-28T19:52:55.276Z,45.60
2018-06-28T19:55:24.203Z,45.80
2018-06-28T19:57:59.621Z,45.90
2018-06-28T20:00:33.996Z,45.60
2018-06-28T20:03:08.164Z,45.90
2018-06-28T20:05:37.000Z,46.20
2018-06-28T20:08:05.805Z,46.30
2018-06-28T20:10:35.870Z,46.30
2018-06-28T20:13:10.397Z,46.50
2018-06-28T20:15:51.348Z,46.60
2018-06-28T20:19:28.322Z,46.80
2018-06-28T20:21:57.121Z,47.10
2018-06-28T20:24:25.907Z,47.30
2018-06-28T20:27:00.002Z,47.50
2018-06-28T20:29:34.433Z,47.40
2018-06-28T20:32:08.588Z,47.60
2018-06-28T20:34:37.394Z,47.70
2018-06-28T20:37:06.219Z,47.90
2018-06-28T20:42:03.596Z,47.80
2018-06-28T20:44:32.369Z,47.80
2018-06-28T20:49:30.359Z,48.00
2018-06-28T20:51:59.223Z,48.20
2018-06-28T20:54:28.693Z,48.10
2018-06-28T20:56:57.620Z,48.00
2018-06-28T20:59:26.384Z,48.10
2018-06-28T21:01:55.218Z,48.10
2018-06-28T21:04:24.049Z,48.10
2018-06-28T21:06:52.877Z,48.20
2018-06-28T21:09:21.648Z,48.50
2018-06-28T21:11:50.433Z,48.50
2018-06-28T21:14:19.230Z,48.60
2018-06-28T21:16:48.194Z,48.60
2018-06-28T21:19:17.070Z,48.70
2018-06-28T21:21:45.849Z,48.70
2018-06-28T21:26:43.107Z,49.00
2018-06-28T21:29:11.833Z,49.10
2018-06-28T21:31:40.672Z,49.00
2018-06-28T21:34:09.650Z,49.00
2018-06-28T21:36:38.492Z,49.00
2018-06-28T21:41:37.192Z,49.40
2018-06-28T21:46:34.627Z,49.50
2018-06-28T21:49:03.472Z,49.70
2018-06-28T21:51:32.254Z,49.80
2018-06-28T21:54:01.104Z,50.00
2018-06-28T21:56:29.908Z,50.00
2018-06-28T21:58:58.716Z,50.00
2018-06-28T22:01:27.547Z,50.00
2018-06-28T22:03:56.548Z,50.10
2018-06-28T22:06:25.347Z,50.40
2018-06-28T22:08:54.148Z,50.50
2018-06-28T22:11:22.904Z,50.50
2018-06-28T22:13:51.688Z,50.60
2018-06-28T22:16:20.531Z,50.60
2018-06-28T22:18:49.348Z,50.90
2018-06-28T22:21:18.199Z,51.00
2018-06-28T22:23:46.963Z,51.20
2018-06-28T22:26:16.271Z,51.50
2018-06-28T22:28:45.061Z,51.60
2018-06-28T22:31:13.896Z,51.60
2018-06-28T22:33:43.208Z,51.40
2018-06-28T22:36:11.979Z,51.50
2018-06-28T22:38:40.820Z,51.60
2018-06-28T22:41:09.691Z,51.60
2018-06-28T22:43:38.583Z,51.60
2018-06-28T22:46:07.385Z,51.70
2018-06-28T22:48:36.276Z,51.90
2018-06-28T22:51:05.112Z,52.00
2018-06-28T22:56:02.508Z,52.70
2018-06-28T22:58:31.310Z,52.20
2018-06-28T23:01:00.118Z,52.10
2018-06-28T23:03:28.927Z,52.10
2018-06-28T23:05:57.743Z,52.10
2018-06-28T23:08:26.525Z,52.20
2018-06-28T23:13:23.836Z,52.80
2018-06-28T23:15:52.593Z,53.10
2018-06-28T23:20:50.203Z,53.40
2018-06-28T23:23:19.182Z,53.50
2018-06-28T23:25:48.079Z,53.50
2018-06-28T23:28:16.880Z,53.50
2018-06-28T23:30:46.749Z,53.80
2018-06-28T23:33:15.330Z,53.90
2018-06-28T23:35:44.206Z,54.00
2018-06-28T23:38:12.990Z,54.10
2018-06-28T23:40:41.783Z,54.30
2018-06-28T23:43:10.590Z,54.50
2018-06-28T23:45:39.355Z,54.50
2018-06-28T23:48:08.255Z,54.40
2018-06-28T23:50:37.014Z,54.30
2018-06-28T23:53:05.885Z,54.50
2018-06-28T23:55:34.660Z,54.60
2018-06-28T23:58:03.433Z,54.70
